createdAt,value
2023-04-14T00:00:10.686Z,4.73
2023-04-14T00:00:35.371Z,4.73
2023-04-14T00:00:57.822Z,4.73
2023-04-14T00:01:28.954Z,4.73
2023-04-14T00:02:01.421Z,4.84
2023-04-14T00:02:32.992Z,4.84
2023-04-14T00:03:05.084Z,4.84
2023-04-14T00:03:37.044Z,4.84
2023-04-14T00:04:09.623Z,4.96
2023-04-14T00:04:35.696Z,4.96
2023-04-14T00:04:56.773Z,4.96
2023-04-14T00:05:29.045Z,4.96
2023-04-14T00:06:01.234Z,4.96
2023-04-14T00:06:32.799Z,4.96
2023-04-14T00:07:04.755Z,4.84
2023-04-14T00:07:36.761Z,4.84
2023-04-14T00:08:08.813Z,4.84
2023-04-14T00:08:35.194Z,4.84
2023-04-14T00:08:56.789Z,4.73
2023-04-14T00:09:28.833Z,4.73
2023-04-14T00:10:03.064Z,4.73
2023-04-14T00:10:33.485Z,4.73
2023-04-14T00:11:04.811Z,4.73
2023-04-14T00:11:36.839Z,4.73
2023-04-14T00:12:08.818Z,4.73
2023-04-14T00:12:35.131Z,4.73
2023-04-14T00:12:56.759Z,4.73
2023-04-14T00:13:28.786Z,4.73
2023-04-14T00:14:01.230Z,4.73
2023-04-14T00:14:32.762Z,4.73
2023-04-14T00:15:05.328Z,4.73
2023-04-14T00:15:36.772Z,4.73
2023-04-14T00:16:08.985Z,4.73
2023-04-14T00:16:35.150Z,4.73
2023-04-14T00:16:57.590Z,4.73
2023-04-14T00:17:28.850Z,4.73
2023-04-14T00:18:01.371Z,4.73
2023-04-14T00:18:32.774Z,4.73
2023-04-14T00:19:04.801Z,4.73
2023-04-14T00:19:36.804Z,4.73
2023-04-14T00:20:09.780Z,4.73
2023-04-14T00:20:35.167Z,4.73
2023-04-14T00:20:57.012Z,4.84
2023-04-14T00:21:28.791Z,4.84
2023-04-14T00:22:01.344Z,4.84
2023-04-14T00:22:32.967Z,4.84
2023-04-14T00:23:04.809Z,4.84
2023-04-14T00:23:36.771Z,4.84
2023-04-14T00:24:08.764Z,4.84
2023-04-14T00:24:35.570Z,4.84
2023-04-14T00:24:56.777Z,4.84
2023-04-14T00:25:29.135Z,4.84
2023-04-14T00:26:01.279Z,4.73
2023-04-14T00:26:33.933Z,4.73
2023-04-14T00:27:04.821Z,4.73
2023-04-14T00:27:37.089Z,4.84
2023-04-14T00:28:08.844Z,4.84
2023-04-14T00:28:35.115Z,4.84
2023-04-14T00:28:56.774Z,4.99
2023-04-14T00:29:28.778Z,4.84
2023-04-14T00:30:03.514Z,4.73
2023-04-14T00:30:32.788Z,4.88
2023-04-14T00:31:04.843Z,4.73
2023-04-14T00:31:36.910Z,4.73
2023-04-14T00:32:08.780Z,4.88
2023-04-14T00:32:35.573Z,4.88
2023-04-14T00:32:57.600Z,4.88
2023-04-14T00:33:28.983Z,4.88
2023-04-14T00:34:01.354Z,4.88
2023-04-14T00:34:32.788Z,4.88
2023-04-14T00:35:05.256Z,4.88
2023-04-14T00:35:36.799Z,4.88
2023-04-14T00:36:09.512Z,4.99
2023-04-14T00:36:35.127Z,4.99
2023-04-14T00:36:56.780Z,4.99
2023-04-14T00:37:28.788Z,4.99
2023-04-14T00:38:01.331Z,4.99
2023-04-14T00:38:32.799Z,4.99
2023-04-14T00:39:04.796Z,4.99
2023-04-14T00:39:36.810Z,4.99
2023-04-14T00:40:09.652Z,4.99
2023-04-14T00:40:35.393Z,4.99
2023-04-14T00:40:57.826Z,4.88
2023-04-14T00:41:29.002Z,4.88
2023-04-14T00:42:02.590Z,4.88
2023-04-14T00:42:33.659Z,4.88
2023-04-14T00:43:05.736Z,4.88
2023-04-14T00:43:36.822Z,4.83
2023-04-14T00:44:09.247Z,4.83
2023-04-14T00:44:35.702Z,4.83
2023-04-14T00:44:56.948Z,4.83
2023-04-14T00:45:29.605Z,4.83
2023-04-14T00:46:01.784Z,4.83
2023-04-14T00:46:33.019Z,4.83
2023-04-14T00:47:04.852Z,4.83
2023-04-14T00:47:37.018Z,4.83
2023-04-14T00:48:09.017Z,4.83
2023-04-14T00:48:35.881Z,4.83
2023-04-14T00:48:57.663Z,4.83
2023-04-14T00:49:28.899Z,4.83
2023-04-14T00:50:03.209Z,4.83
2023-04-14T00:50:33.136Z,4.83
2023-04-14T00:51:05.141Z,4.83
2023-04-14T00:51:36.901Z,4.83
2023-04-14T00:52:09.509Z,4.72
2023-04-14T00:52:35.468Z,4.72
2023-04-14T00:52:56.809Z,4.72
2023-04-14T00:53:28.818Z,4.72
2023-04-14T00:54:01.473Z,4.72
2023-04-14T00:54:33.211Z,4.72
2023-04-14T00:55:05.292Z,4.61
2023-04-14T00:55:36.830Z,4.61
2023-04-14T00:56:08.772Z,4.61
2023-04-14T00:56:35.468Z,4.61
2023-04-14T00:56:56.824Z,4.61
2023-04-14T00:57:28.877Z,4.61
2023-04-14T00:58:01.557Z,4.49
2023-04-14T00:58:33.517Z,4.49
2023-04-14T00:59:04.878Z,4.49
2023-04-14T00:59:36.899Z,4.49
2023-04-14T01:00:09.497Z,4.49
2023-04-14T01:00:35.219Z,4.49
2023-04-14T01:00:57.105Z,4.49
2023-04-14T01:01:28.857Z,4.49
2023-04-14T01:02:01.513Z,4.49
2023-04-14T01:02:33.068Z,4.49
2023-04-14T01:03:04.965Z,4.49
2023-04-14T01:03:37.092Z,4.38
2023-04-14T01:04:08.994Z,4.38
2023-04-14T01:04:52.158Z,4.38
2023-04-14T01:04:57.742Z,4.33
2023-04-14T01:05:29.196Z,4.33
2023-04-14T01:06:01.501Z,4.33
2023-04-14T01:06:32.846Z,4.23
2023-04-14T01:07:04.843Z,4.12
2023-04-14T01:07:36.847Z,4.12
2023-04-14T01:08:09.677Z,4.12
2023-04-14T01:08:35.168Z,4.12
2023-04-14T01:08:56.804Z,4.00
2023-04-14T01:09:28.835Z,4.00
2023-04-14T01:10:03.381Z,4.00
2023-04-14T01:10:32.875Z,4.00
2023-04-14T01:11:04.872Z,4.00
2023-04-14T01:11:36.807Z,4.12
2023-04-14T01:12:08.818Z,4.12
2023-04-14T01:12:35.146Z,4.12
2023-04-14T01:12:56.842Z,4.12
2023-04-14T01:13:28.808Z,4.12
2023-04-14T01:14:01.465Z,4.00
2023-04-14T01:14:33.698Z,4.00
2023-04-14T01:15:05.726Z,4.00
2023-04-14T01:15:36.841Z,4.00
2023-04-14T01:16:09.070Z,4.00
2023-04-14T01:16:35.259Z,4.00
2023-04-14T01:16:56.812Z,4.00
2023-04-14T01:17:28.892Z,4.00
2023-04-14T01:18:01.411Z,4.00
2023-04-14T01:18:32.847Z,3.89
2023-04-14T01:19:04.845Z,3.89
2023-04-14T01:19:37.153Z,3.89
2023-04-14T01:20:09.166Z,3.89
2023-04-14T01:20:35.193Z,3.89
2023-04-14T01:20:57.802Z,3.89
2023-04-14T01:21:28.832Z,3.84
2023-04-14T01:22:01.424Z,3.84
2023-04-14T01:22:32.865Z,3.84
2023-04-14T01:23:04.877Z,3.84
2023-04-14T01:23:36.861Z,3.84
2023-04-14T01:24:10.522Z,3.73
2023-04-14T01:24:35.176Z,3.73
2023-04-14T01:24:56.829Z,3.73
2023-04-14T01:25:29.143Z,3.62
2023-04-14T01:26:01.392Z,3.62
2023-04-14T01:26:32.835Z,3.62
2023-04-14T01:27:04.857Z,3.62
2023-04-14T01:27:36.932Z,3.62
2023-04-14T01:28:09.225Z,3.62
2023-04-14T01:28:35.175Z,3.62
2023-04-14T01:28:56.861Z,3.50
2023-04-14T01:29:28.852Z,3.62
2023-04-14T01:30:03.877Z,3.62
2023-04-14T01:30:33.675Z,3.62
2023-04-14T01:31:04.888Z,3.62
2023-04-14T01:31:36.922Z,3.62
2023-04-14T01:32:09.266Z,3.78
2023-04-14T01:32:35.194Z,3.78
2023-04-14T01:32:56.861Z,3.89
2023-04-14T01:33:28.797Z,3.89
2023-04-14T01:34:01.344Z,3.89
2023-04-14T01:34:33.171Z,3.89
2023-04-14T01:35:05.309Z,3.89
2023-04-14T01:35:36.839Z,3.89
2023-04-14T01:36:08.759Z,3.89
2023-04-14T01:36:35.130Z,3.89
2023-04-14T01:36:57.597Z,3.89
2023-04-14T01:37:28.829Z,3.89
2023-04-14T01:38:01.373Z,3.89
2023-04-14T01:38:32.833Z,3.89
2023-04-14T01:39:04.811Z,3.89
2023-04-14T01:39:36.819Z,3.62
2023-04-14T01:40:12.535Z,3.78
2023-04-14T01:40:35.120Z,3.78
2023-04-14T01:40:57.052Z,3.62
2023-04-14T01:41:28.807Z,3.78
2023-04-14T01:42:01.391Z,3.78
2023-04-14T01:42:32.796Z,3.78
2023-04-14T01:43:04.839Z,3.78
2023-04-14T01:43:36.781Z,3.78
2023-04-14T01:44:08.811Z,3.78
2023-04-14T01:44:35.117Z,3.78
2023-04-14T01:44:56.807Z,3.78
2023-04-14T01:45:29.414Z,3.78
2023-04-14T01:46:03.081Z,3.78
2023-04-14T01:46:33.781Z,3.50
2023-04-14T01:47:04.855Z,3.50
2023-04-14T01:47:36.817Z,3.50
2023-04-14T01:48:08.846Z,3.39
2023-04-14T01:48:35.126Z,3.39
2023-04-14T01:48:56.796Z,3.55
2023-04-14T01:49:28.862Z,3.50
2023-04-14T01:50:03.296Z,3.34
2023-04-14T01:50:32.845Z,3.50
2023-04-14T01:51:04.827Z,3.50
2023-04-14T01:51:36.777Z,3.34
2023-04-14T01:52:08.795Z,3.34
2023-04-14T01:52:35.149Z,3.34
2023-04-14T01:52:57.509Z,3.34
2023-04-14T01:53:28.828Z,3.50
2023-04-14T01:54:01.368Z,3.34
2023-04-14T01:54:33.616Z,3.23
2023-04-14T01:55:05.238Z,3.39
2023-04-14T01:55:36.811Z,3.23
2023-04-14T01:56:10.631Z,3.39
2023-04-14T01:56:35.120Z,3.39
2023-04-14T01:56:56.785Z,3.23
2023-04-14T01:57:28.807Z,3.23
2023-04-14T01:58:01.464Z,3.23
2023-04-14T01:58:32.808Z,3.23
2023-04-14T01:59:04.873Z,3.12
2023-04-14T01:59:36.825Z,3.00
2023-04-14T02:00:10.782Z,3.00
2023-04-14T02:00:35.125Z,3.00
2023-04-14T02:00:57.173Z,2.90
2023-04-14T02:01:28.947Z,2.90
2023-04-14T02:02:01.515Z,2.90
2023-04-14T02:02:33.919Z,2.90
2023-04-14T02:03:04.963Z,2.85
2023-04-14T02:03:36.904Z,2.85
2023-04-14T02:04:08.917Z,2.85
2023-04-14T02:04:35.123Z,2.85
2023-04-14T02:04:57.335Z,2.85
2023-04-14T02:05:29.109Z,2.74
2023-04-14T02:06:01.387Z,2.74
2023-04-14T02:06:32.802Z,2.74
2023-04-14T02:07:04.822Z,2.90
2023-04-14T02:07:36.789Z,2.90
2023-04-14T02:08:08.793Z,2.90
2023-04-14T02:08:35.113Z,2.90
2023-04-14T02:08:57.709Z,2.90
2023-04-14T02:09:28.912Z,2.90
2023-04-14T02:10:03.340Z,2.90
2023-04-14T02:10:32.812Z,3.00
2023-04-14T02:11:04.850Z,3.00
2023-04-14T02:11:37.109Z,3.05
2023-04-14T02:12:09.606Z,3.05
2023-04-14T02:12:35.129Z,3.05
2023-04-14T02:12:56.812Z,3.05
2023-04-14T02:13:28.818Z,3.05
2023-04-14T02:14:01.472Z,3.05
2023-04-14T02:14:32.801Z,3.05
2023-04-14T02:15:05.414Z,3.05
2023-04-14T02:15:36.804Z,3.05
2023-04-14T02:16:09.737Z,3.05
2023-04-14T02:16:35.288Z,3.05
2023-04-14T02:16:56.968Z,3.00
2023-04-14T02:17:28.845Z,3.00
2023-04-14T02:18:01.468Z,3.00
2023-04-14T02:18:33.526Z,3.00
2023-04-14T02:19:04.868Z,3.00
2023-04-14T02:19:36.959Z,2.90
2023-04-14T02:20:09.181Z,2.90
2023-04-14T02:20:35.118Z,2.90
2023-04-14T02:20:57.022Z,2.90
2023-04-14T02:21:28.821Z,2.90
2023-04-14T02:22:01.590Z,2.90
2023-04-14T02:22:32.806Z,2.90
2023-04-14T02:23:04.816Z,3.00
2023-04-14T02:23:36.775Z,3.00
2023-04-14T02:24:08.838Z,3.00
2023-04-14T02:24:35.119Z,3.00
2023-04-14T02:24:57.526Z,3.00
2023-04-14T02:25:29.171Z,3.00
2023-04-14T02:26:01.400Z,3.00
2023-04-14T02:26:32.820Z,3.00
2023-04-14T02:27:04.873Z,3.00
2023-04-14T02:27:36.825Z,3.00
2023-04-14T02:28:10.185Z,3.00
2023-04-14T02:28:35.125Z,3.00
2023-04-14T02:28:56.806Z,3.00
2023-04-14T02:29:28.823Z,3.00
2023-04-14T02:30:03.702Z,3.00
2023-04-14T02:30:32.872Z,3.00
2023-04-14T02:31:04.851Z,3.00
2023-04-14T02:31:36.819Z,3.00
2023-04-14T02:32:08.792Z,3.00
2023-04-14T02:32:35.161Z,3.00
2023-04-14T02:32:56.854Z,3.00
2023-04-14T02:33:28.948Z,2.90
2023-04-14T02:34:01.400Z,2.90
2023-04-14T02:34:35.098Z,2.90
2023-04-14T02:35:05.173Z,2.79
2023-04-14T02:35:36.797Z,2.79
2023-04-14T02:36:08.845Z,2.67
2023-04-14T02:36:35.129Z,2.67
2023-04-14T02:36:56.812Z,2.67
2023-04-14T02:37:28.790Z,2.67
2023-04-14T02:38:01.354Z,2.67
2023-04-14T02:38:32.825Z,2.67
2023-04-14T02:39:04.830Z,2.67
2023-04-14T02:39:36.824Z,2.67
2023-04-14T02:40:09.172Z,2.67
2023-04-14T02:40:35.150Z,2.67
2023-04-14T02:40:57.875Z,2.67
2023-04-14T02:41:28.840Z,2.67
2023-04-14T02:42:01.501Z,2.67
2023-04-14T02:42:32.846Z,2.67
2023-04-14T02:43:04.820Z,2.67
2023-04-14T02:43:36.830Z,2.67
2023-04-14T02:44:10.634Z,2.67
2023-04-14T02:44:35.151Z,2.67
2023-04-14T02:44:56.807Z,2.67
2023-04-14T02:45:29.270Z,2.67
2023-04-14T02:46:03.012Z,2.67
2023-04-14T02:46:32.898Z,2.79
2023-04-14T02:47:04.862Z,2.79
2023-04-14T02:47:36.815Z,2.79
2023-04-14T02:48:08.810Z,2.79
2023-04-14T02:48:35.487Z,2.79
2023-04-14T02:48:56.825Z,2.67
2023-04-14T02:49:28.794Z,2.67
2023-04-14T02:50:03.353Z,2.67
2023-04-14T02:50:33.524Z,2.67
2023-04-14T02:51:04.858Z,2.56
2023-04-14T02:51:36.803Z,2.56
2023-04-14T02:52:08.871Z,2.56
2023-04-14T02:52:35.107Z,2.56
2023-04-14T02:52:56.795Z,2.56
2023-04-14T02:53:28.857Z,2.56
2023-04-14T02:54:01.341Z,2.56
2023-04-14T02:54:33.492Z,2.56
2023-04-14T02:55:05.200Z,2.56
2023-04-14T02:55:36.806Z,2.56
2023-04-14T02:56:08.811Z,2.56
2023-04-14T02:56:35.105Z,2.56
2023-04-14T02:56:57.540Z,2.51
2023-04-14T02:57:28.856Z,2.51
2023-04-14T02:58:01.362Z,2.51
2023-04-14T02:58:32.874Z,2.40
2023-04-14T02:59:04.875Z,2.40
2023-04-14T02:59:36.811Z,2.40
2023-04-14T03:00:11.847Z,2.40
2023-04-14T03:00:35.149Z,2.40
2023-04-14T03:00:57.052Z,2.40
2023-04-14T03:01:28.846Z,2.40
2023-04-14T03:02:01.650Z,2.40
2023-04-14T03:02:32.971Z,2.29
2023-04-14T03:03:04.965Z,2.29
2023-04-14T03:03:37.134Z,2.29
2023-04-14T03:04:24.885Z,2.29
2023-04-14T03:04:42.066Z,2.29
2023-04-14T03:05:13.148Z,2.29
2023-04-14T03:05:35.495Z,2.29
2023-04-14T03:06:01.403Z,2.40
2023-04-14T03:06:32.829Z,2.40
2023-04-14T03:07:04.871Z,2.40
2023-04-14T03:07:36.861Z,2.51
2023-04-14T03:08:08.865Z,2.51
2023-04-14T03:08:35.319Z,2.51
2023-04-14T03:08:58.538Z,2.51
2023-04-14T03:09:28.823Z,2.51
2023-04-14T03:10:03.294Z,2.51
2023-04-14T03:10:32.812Z,2.51
2023-04-14T03:11:04.915Z,2.51
2023-04-14T03:11:37.215Z,2.51
2023-04-14T03:12:09.608Z,2.51
2023-04-14T03:12:35.141Z,2.51
2023-04-14T03:12:56.917Z,2.51
2023-04-14T03:13:28.850Z,2.51
2023-04-14T03:14:01.648Z,2.51
2023-04-14T03:14:32.852Z,2.51
2023-04-14T03:15:05.346Z,2.51
2023-04-14T03:15:36.875Z,2.51
2023-04-14T03:16:09.009Z,2.51
2023-04-14T03:16:35.202Z,2.51
2023-04-14T03:16:56.805Z,2.51
2023-04-14T03:17:28.806Z,2.51
2023-04-14T03:18:01.477Z,2.51
2023-04-14T03:18:35.411Z,2.51
2023-04-14T03:19:04.957Z,2.51
2023-04-14T03:19:36.817Z,2.51
2023-04-14T03:20:09.587Z,2.51
2023-04-14T03:20:35.409Z,2.51
2023-04-14T03:20:57.078Z,2.40
2023-04-14T03:21:28.915Z,2.29
2023-04-14T03:22:01.465Z,2.29
2023-04-14T03:22:32.871Z,2.29
2023-04-14T03:23:04.904Z,2.29
2023-04-14T03:23:36.820Z,2.29
2023-04-14T03:24:08.847Z,2.29
2023-04-14T03:24:35.112Z,2.29
2023-04-14T03:24:57.521Z,2.17
2023-04-14T03:25:29.132Z,2.17
2023-04-14T03:26:01.379Z,2.17
2023-04-14T03:26:32.844Z,2.17
2023-04-14T03:27:04.954Z,2.17
2023-04-14T03:27:36.829Z,2.17
2023-04-14T03:28:09.652Z,2.17
2023-04-14T03:28:37.162Z,2.17
2023-04-14T03:28:56.842Z,2.17
2023-04-14T03:29:28.856Z,2.17
2023-04-14T03:30:03.731Z,2.17
2023-04-14T03:30:32.891Z,2.17
2023-04-14T03:31:04.912Z,2.06
2023-04-14T03:31:36.897Z,2.06
2023-04-14T03:32:08.839Z,2.06
2023-04-14T03:32:35.174Z,2.06
2023-04-14T03:32:56.847Z,2.06
2023-04-14T03:33:28.876Z,2.06
2023-04-14T03:34:01.448Z,2.06
2023-04-14T03:34:33.500Z,2.06
2023-04-14T03:35:05.223Z,2.06
2023-04-14T03:35:36.831Z,2.06
2023-04-14T03:36:08.837Z,2.06
2023-04-14T03:36:35.122Z,2.06
2023-04-14T03:36:56.838Z,2.06
2023-04-14T03:37:28.871Z,2.06
2023-04-14T03:38:01.449Z,2.06
2023-04-14T03:38:33.238Z,2.06
2023-04-14T03:39:04.916Z,2.06
2023-04-14T03:39:36.854Z,2.01
2023-04-14T03:40:09.147Z,2.01
2023-04-14T03:40:35.723Z,2.01
2023-04-14T03:40:58.003Z,2.01
2023-04-14T03:41:28.853Z,2.01
2023-04-14T03:42:01.414Z,2.01
2023-04-14T03:42:32.822Z,1.90
2023-04-14T03:43:04.875Z,1.90
2023-04-14T03:43:36.941Z,1.90
2023-04-14T03:44:09.803Z,1.90
2023-04-14T03:44:35.107Z,1.90
2023-04-14T03:44:56.803Z,1.90
2023-04-14T03:45:29.394Z,1.90
2023-04-14T03:46:02.961Z,1.90
2023-04-14T03:46:32.958Z,1.90
2023-04-14T03:47:04.933Z,1.90
2023-04-14T03:47:36.889Z,1.90
2023-04-14T03:48:08.873Z,1.90
2023-04-14T03:48:35.426Z,1.90
2023-04-14T03:48:56.863Z,1.90
2023-04-14T03:49:28.840Z,1.90
2023-04-14T03:50:03.298Z,1.90
2023-04-14T03:50:33.520Z,1.79
2023-04-14T03:51:04.883Z,1.79
2023-04-14T03:51:36.880Z,1.79
2023-04-14T03:52:08.849Z,1.79
2023-04-14T03:52:35.152Z,1.79
2023-04-14T03:52:56.832Z,1.79
2023-04-14T03:53:28.850Z,1.79
2023-04-14T03:54:01.373Z,1.79
2023-04-14T03:54:32.887Z,1.79
2023-04-14T03:55:05.242Z,1.67
2023-04-14T03:55:37.209Z,1.67
2023-04-14T03:56:09.241Z,1.67
2023-04-14T03:56:35.121Z,1.67
2023-04-14T03:56:57.419Z,1.67
2023-04-14T03:57:28.823Z,1.67
2023-04-14T03:58:01.334Z,1.67
2023-04-14T03:58:33.156Z,1.67
2023-04-14T03:59:04.860Z,1.67
2023-04-14T03:59:36.888Z,1.67
2023-04-14T04:00:11.612Z,1.67
2023-04-14T04:00:35.455Z,1.67
2023-04-14T04:00:57.116Z,1.79
2023-04-14T04:01:28.881Z,1.79
2023-04-14T04:02:01.668Z,1.67
2023-04-14T04:02:32.517Z,1.67
2023-04-14T04:03:04.742Z,1.79
2023-04-14T04:03:36.516Z,1.67
2023-04-14T04:04:08.463Z,1.67
2023-04-14T04:04:35.023Z,1.67
2023-04-14T04:04:56.416Z,1.67
2023-04-14T04:05:28.666Z,1.67
2023-04-14T04:06:00.659Z,1.67
2023-04-14T04:06:34.788Z,1.67
2023-04-14T04:07:06.294Z,1.67
2023-04-14T04:07:36.861Z,1.67
2023-04-14T04:08:08.876Z,1.67
2023-04-14T04:08:35.576Z,1.67
2023-04-14T04:08:56.867Z,1.67
2023-04-14T04:09:28.893Z,1.79
2023-04-14T04:10:02.783Z,1.79
2023-04-14T04:10:34.177Z,1.79
2023-04-14T04:11:05.251Z,1.79
2023-04-14T04:11:36.915Z,1.79
2023-04-14T04:12:09.870Z,1.67
2023-04-14T04:12:35.593Z,1.67
2023-04-14T04:12:57.544Z,1.67
2023-04-14T04:13:28.877Z,1.67
2023-04-14T04:14:00.911Z,1.67
2023-04-14T04:14:32.879Z,1.82
2023-04-14T04:15:05.366Z,1.82
2023-04-14T04:15:36.901Z,1.94
2023-04-14T04:16:10.371Z,1.94
2023-04-14T04:16:35.141Z,1.94
2023-04-14T04:16:57.019Z,1.94
2023-04-14T04:17:28.964Z,1.79
2023-04-14T04:18:00.998Z,1.94
2023-04-14T04:18:32.889Z,1.94
2023-04-14T04:19:04.856Z,1.82
2023-04-14T04:19:36.879Z,1.82
2023-04-14T04:20:09.582Z,1.82
2023-04-14T04:20:35.180Z,1.82
2023-04-14T04:20:57.106Z,1.82
2023-04-14T04:21:28.869Z,1.67
2023-04-14T04:22:00.894Z,1.71
2023-04-14T04:22:34.586Z,1.56
2023-04-14T04:23:04.961Z,1.71
2023-04-14T04:23:36.844Z,1.66
2023-04-14T04:24:08.903Z,1.66
2023-04-14T04:24:35.289Z,1.66
2023-04-14T04:24:56.887Z,1.66
2023-04-14T04:25:29.166Z,1.66
2023-04-14T04:26:00.924Z,1.66
2023-04-14T04:26:35.102Z,1.66
2023-04-14T04:27:06.485Z,1.66
2023-04-14T04:27:36.851Z,1.66
2023-04-14T04:28:08.932Z,1.66
2023-04-14T04:28:35.588Z,1.66
2023-04-14T04:28:57.684Z,1.71
2023-04-14T04:29:28.882Z,1.82
2023-04-14T04:30:03.098Z,1.82
2023-04-14T04:30:32.888Z,1.82
2023-04-14T04:31:04.854Z,1.82
2023-04-14T04:31:36.991Z,1.82
2023-04-14T04:32:10.062Z,1.82
2023-04-14T04:32:35.605Z,1.82
2023-04-14T04:32:56.926Z,1.71
2023-04-14T04:33:29.173Z,1.71
2023-04-14T04:34:00.912Z,1.71
2023-04-14T04:34:32.901Z,1.71
2023-04-14T04:35:05.322Z,1.71
2023-04-14T04:35:37.003Z,1.71
2023-04-14T04:36:08.904Z,1.71
2023-04-14T04:36:35.580Z,1.71
2023-04-14T04:36:56.969Z,1.71
2023-04-14T04:37:29.038Z,1.71
2023-04-14T04:38:01.051Z,1.71
2023-04-14T04:38:33.704Z,1.71
2023-04-14T04:39:04.863Z,1.66
2023-04-14T04:39:36.986Z,1.66
2023-04-14T04:40:09.649Z,1.51
2023-04-14T04:40:35.732Z,1.51
2023-04-14T04:40:57.265Z,1.51
2023-04-14T04:41:29.049Z,1.40
2023-04-14T04:42:01.039Z,1.18
2023-04-14T04:42:33.030Z,1.18
2023-04-14T04:43:05.036Z,1.07
2023-04-14T04:43:37.034Z,1.07
2023-04-14T04:44:09.492Z,1.07
2023-04-14T04:44:35.385Z,1.07
2023-04-14T04:44:57.782Z,1.07
2023-04-14T04:45:29.447Z,1.21
2023-04-14T04:46:02.430Z,1.21
2023-04-14T04:46:33.058Z,1.21
2023-04-14T04:47:04.949Z,1.21
2023-04-14T04:47:37.301Z,1.21
2023-04-14T04:48:10.271Z,1.21
2023-04-14T04:48:35.239Z,1.21
2023-04-14T04:48:56.966Z,1.21
2023-04-14T04:49:29.023Z,1.21
2023-04-14T04:50:02.831Z,1.32
2023-04-14T04:50:33.323Z,1.32
2023-04-14T04:51:04.996Z,1.32
2023-04-14T04:51:36.975Z,1.44
2023-04-14T04:52:09.078Z,1.44
2023-04-14T04:52:35.222Z,1.44
2023-04-14T04:52:56.989Z,1.44
2023-04-14T04:53:29.022Z,1.30
2023-04-14T04:54:01.039Z,1.30
2023-04-14T04:54:34.293Z,1.18
2023-04-14T04:55:05.278Z,1.07
2023-04-14T04:55:36.979Z,1.02
2023-04-14T04:56:09.101Z,1.02
2023-04-14T04:56:35.218Z,.91
2023-04-14T04:56:57.023Z,1.05
2023-04-14T04:57:29.009Z,1.05
2023-04-14T04:58:01.307Z,1.05
2023-04-14T04:58:32.967Z,1.16
2023-04-14T04:59:05.032Z,1.21
2023-04-14T04:59:38.162Z,1.21
2023-04-14T05:00:11.506Z,1.21
2023-04-14T05:00:35.225Z,1.32
2023-04-14T05:00:58.194Z,1.44
2023-04-14T05:01:29.072Z,1.44
2023-04-14T05:02:01.215Z,1.44
2023-04-14T05:02:33.078Z,1.44
2023-04-14T05:03:05.158Z,1.44
2023-04-14T05:03:37.099Z,1.44
2023-04-14T05:04:10.328Z,1.44
2023-04-14T05:04:35.245Z,1.44
2023-04-14T05:04:57.023Z,1.32
2023-04-14T05:05:29.304Z,1.32
2023-04-14T05:06:01.027Z,1.32
2023-04-14T05:06:32.975Z,1.32
2023-04-14T05:07:05.085Z,1.32
2023-04-14T05:07:37.033Z,1.44
2023-04-14T05:08:11.010Z,1.44
2023-04-14T05:08:35.184Z,1.44
2023-04-14T05:08:56.956Z,1.55
2023-04-14T05:09:29.027Z,1.55
2023-04-14T05:10:02.860Z,1.66
2023-04-14T05:10:33.013Z,1.66
2023-04-14T05:11:04.949Z,1.71
2023-04-14T05:11:37.018Z,1.71
2023-04-14T05:12:09.009Z,1.71
2023-04-14T05:12:35.227Z,1.82
2023-04-14T05:12:57.023Z,1.82
2023-04-14T05:13:29.043Z,1.94
2023-04-14T05:14:01.110Z,1.94
2023-04-14T05:14:32.978Z,1.94
2023-04-14T05:15:05.510Z,1.94
2023-04-14T05:15:37.906Z,2.05
2023-04-14T05:16:09.667Z,2.05
2023-04-14T05:16:35.211Z,2.16
2023-04-14T05:16:57.069Z,2.21
2023-04-14T05:17:29.055Z,2.21
2023-04-14T05:18:01.097Z,2.21
2023-04-14T05:18:33.001Z,2.21
2023-04-14T05:19:05.031Z,2.21
2023-04-14T05:19:37.047Z,2.21
2023-04-14T05:20:09.752Z,2.21
2023-04-14T05:20:35.507Z,2.21
2023-04-14T05:20:57.258Z,2.21
2023-04-14T05:21:29.050Z,2.21
2023-04-14T05:22:01.995Z,2.21
2023-04-14T05:22:33.023Z,2.21
2023-04-14T05:23:04.985Z,2.21
2023-04-14T05:23:37.018Z,2.21
2023-04-14T05:24:10.071Z,2.21
2023-04-14T05:24:35.165Z,2.21
2023-04-14T05:24:56.963Z,2.21
2023-04-14T05:25:29.297Z,2.06
2023-04-14T05:26:16.347Z,2.06
2023-04-14T05:26:52.019Z,2.06
2023-04-14T05:27:14.175Z,2.06
2023-04-14T05:27:37.015Z,2.01
2023-04-14T05:28:09.039Z,2.01
2023-04-14T05:28:35.526Z,2.01
2023-04-14T05:28:57.040Z,2.01
2023-04-14T05:29:29.004Z,2.01
2023-04-14T05:30:03.205Z,2.01
2023-04-14T05:30:33.043Z,2.06
2023-04-14T05:31:05.083Z,2.17
2023-04-14T05:31:37.979Z,2.29
2023-04-14T05:32:09.095Z,2.29
2023-04-14T05:32:35.281Z,2.40
2023-04-14T05:32:57.057Z,2.40
2023-04-14T05:33:29.013Z,2.40
2023-04-14T05:34:01.307Z,2.40
2023-04-14T05:34:33.002Z,2.40
2023-04-14T05:35:05.281Z,2.40
2023-04-14T05:35:37.036Z,2.40
2023-04-14T05:36:10.244Z,2.40
2023-04-14T05:36:35.186Z,2.51
2023-04-14T05:36:57.052Z,2.51
2023-04-14T05:37:29.078Z,2.51
2023-04-14T05:38:01.766Z,2.51
2023-04-14T05:38:33.047Z,2.56
2023-04-14T05:39:05.042Z,2.56
2023-04-14T05:39:37.362Z,2.56
2023-04-14T05:40:10.746Z,2.40
2023-04-14T05:40:35.207Z,2.40
2023-04-14T05:40:57.240Z,2.35
2023-04-14T05:41:29.022Z,2.35
2023-04-14T05:42:01.116Z,2.40
2023-04-14T05:42:33.043Z,2.40
2023-04-14T05:43:05.029Z,2.56
2023-04-14T05:43:37.309Z,2.51
2023-04-14T05:44:09.064Z,2.63
2023-04-14T05:44:35.162Z,2.74
2023-04-14T05:44:57.064Z,2.90
2023-04-14T05:45:29.583Z,2.90
2023-04-14T05:46:02.874Z,2.90
2023-04-14T05:46:33.042Z,3.00
2023-04-14T05:47:05.077Z,3.12
2023-04-14T05:47:37.793Z,3.12
2023-04-14T05:48:09.112Z,3.12
2023-04-14T05:48:35.158Z,3.12
2023-04-14T05:48:56.975Z,3.00
2023-04-14T05:49:29.042Z,3.00
2023-04-14T05:50:03.305Z,3.00
2023-04-14T05:50:33.013Z,3.00
2023-04-14T05:51:04.967Z,2.98
2023-04-14T05:51:37.030Z,2.98
2023-04-14T05:52:09.030Z,2.98
2023-04-14T05:52:35.220Z,2.98
2023-04-14T05:52:56.978Z,2.98
2023-04-14T05:53:29.062Z,2.98
2023-04-14T05:54:02.034Z,2.98
2023-04-14T05:54:33.091Z,2.98
2023-04-14T05:55:05.283Z,2.98
2023-04-14T05:55:37.038Z,2.86
2023-04-14T05:56:09.914Z,2.86
2023-04-14T05:56:35.218Z,2.86
2023-04-14T05:56:57.374Z,2.98
2023-04-14T05:57:29.059Z,2.98
2023-04-14T05:58:01.110Z,2.83
2023-04-14T05:58:33.057Z,2.83
2023-04-14T05:59:05.080Z,2.71
2023-04-14T05:59:37.017Z,2.71
2023-04-14T06:00:11.476Z,2.71
2023-04-14T06:00:35.823Z,2.71
2023-04-14T06:00:57.274Z,2.71
2023-04-14T06:01:29.078Z,2.71
2023-04-14T06:02:01.252Z,2.60
2023-04-14T06:02:33.136Z,2.71
2023-04-14T06:03:05.373Z,2.71
2023-04-14T06:03:40.553Z,2.60
2023-04-14T06:04:09.693Z,2.60
2023-04-14T06:04:35.544Z,2.71
2023-04-14T06:04:57.099Z,2.71
2023-04-14T06:05:29.343Z,2.83
2023-04-14T06:06:01.135Z,2.83
2023-04-14T06:06:33.020Z,2.83
2023-04-14T06:07:04.968Z,2.94
2023-04-14T06:07:37.078Z,2.94
2023-04-14T06:08:08.979Z,2.94
2023-04-14T06:08:35.194Z,2.94
2023-04-14T06:08:57.052Z,2.83
2023-04-14T06:09:29.072Z,2.83
2023-04-14T06:10:02.942Z,2.83
2023-04-14T06:10:33.076Z,2.83
2023-04-14T06:11:05.095Z,2.94
2023-04-14T06:11:37.007Z,2.94
2023-04-14T06:12:09.053Z,2.94
2023-04-14T06:12:35.681Z,2.94
2023-04-14T06:12:56.971Z,2.94
2023-04-14T06:13:31.505Z,2.83
2023-04-14T06:14:01.222Z,2.83
2023-04-14T06:14:33.028Z,2.83
2023-04-14T06:15:05.489Z,2.83
2023-04-14T06:15:37.927Z,2.83
2023-04-14T06:16:09.272Z,2.83
2023-04-14T06:16:35.240Z,2.83
2023-04-14T06:16:57.128Z,2.83
2023-04-14T06:17:29.043Z,2.83
2023-04-14T06:18:01.232Z,2.83
2023-04-14T06:18:33.151Z,2.83
2023-04-14T06:19:05.029Z,2.83
2023-04-14T06:19:37.109Z,2.71
2023-04-14T06:20:09.902Z,2.71
2023-04-14T06:20:35.184Z,2.71
2023-04-14T06:20:57.839Z,2.71
2023-04-14T06:21:29.027Z,2.71
2023-04-14T06:22:01.842Z,2.71
2023-04-14T06:22:33.067Z,2.71
2023-04-14T06:23:05.097Z,2.71
2023-04-14T06:23:37.024Z,2.71
2023-04-14T06:24:09.943Z,2.71
2023-04-14T06:24:35.697Z,2.60
2023-04-14T06:24:57.009Z,2.60
2023-04-14T06:25:29.371Z,2.60
2023-04-14T06:26:01.173Z,2.60
2023-04-14T06:26:33.103Z,2.75
2023-04-14T06:27:05.021Z,2.75
2023-04-14T06:27:37.064Z,2.75
2023-04-14T06:28:09.074Z,2.86
2023-04-14T06:28:35.574Z,2.86
2023-04-14T06:28:57.004Z,2.86
2023-04-14T06:29:29.012Z,2.86
2023-04-14T06:30:03.329Z,2.86
2023-04-14T06:30:33.168Z,2.86
2023-04-14T06:31:05.024Z,2.86
2023-04-14T06:31:38.068Z,2.86
2023-04-14T06:32:09.087Z,2.86
2023-04-14T06:32:35.232Z,2.86
2023-04-14T06:32:57.169Z,2.86
2023-04-14T06:33:29.161Z,2.86
2023-04-14T06:34:01.119Z,2.86
2023-04-14T06:34:33.063Z,2.86
2023-04-14T06:35:05.338Z,2.98
2023-04-14T06:35:37.025Z,3.08
2023-04-14T06:36:09.001Z,3.19
2023-04-14T06:36:35.186Z,3.19
2023-04-14T06:36:57.021Z,3.24
2023-04-14T06:37:29.022Z,3.24
2023-04-14T06:38:01.974Z,3.24
2023-04-14T06:38:33.050Z,3.08
2023-04-14T06:39:04.954Z,3.08